sensor_id;sensor_type;location;lat;lon;timestamp;P1;durP1;ratioP1;P2;durP2;ratioP2
21955;SDS011;11142;49.930;8.606;2022-09-12T00:01:13;24.23;;;13.63;;
21955;SDS011;11142;49.930;8.606;2022-09-12T00:03:43;20.13;;;12.60;;
21955;SDS011;11142;49.930;8.606;2022-09-12T00:06:11;24.92;;;13.45;;
21955;SDS011;11142;49.930;8.606;2022-09-12T00:08:49;21.63;;;13.23;;
21955;SDS011;11142;49.930;8.606;2022-09-12T00:11:18;20.65;;;13.27;;
21955;SDS011;11142;49.930;8.606;2022-09-12T00:13:46;24.42;;;13.43;;
21955;SDS011;11142;49.930;8.606;2022-09-12T00:16:14;24.08;;;13.93;;
21955;SDS011;11142;49.930;8.606;2022-09-12T00:18:44;25.85;;;13.73;;
21955;SDS011;11142;49.930;8.606;2022-09-12T00:21:13;24.25;;;13.30;;
21955;SDS011;11142;49.930;8.606;2022-09-12T00:23:43;27.20;;;14.15;;
21955;SDS011;11142;49.930;8.606;2022-09-12T00:26:13;22.50;;;13.88;;
21955;SDS011;11142;49.930;8.606;2022-09-12T00:28:42;25.33;;;14.40;;
21955;SDS011;11142;49.930;8.606;2022-09-12T00:31:12;28.38;;;15.35;;
21955;SDS011;11142;49.930;8.606;2022-09-12T00:33:43;25.23;;;14.00;;
21955;SDS011;11142;49.930;8.606;2022-09-12T00:36:12;23.45;;;14.65;;
21955;SDS011;11142;49.930;8.606;2022-09-12T00:38:42;26.45;;;14.65;;
21955;SDS011;11142;49.930;8.606;2022-09-12T00:41:14;23.15;;;14.90;;
21955;SDS011;11142;49.930;8.606;2022-09-12T00:43:44;26.15;;;14.85;;
21955;SDS011;11142;49.930;8.606;2022-09-12T00:46:16;25.23;;;13.30;;
21955;SDS011;11142;49.930;8.606;2022-09-12T00:49:00;23.95;;;13.77;;
21955;SDS011;11142;49.930;8.606;2022-09-12T00:51:32;24.55;;;14.07;;
21955;SDS011;11142;49.930;8.606;2022-09-12T00:54:04;22.85;;;13.82;;
21955;SDS011;11142;49.930;8.606;2022-09-12T00:56:36;23.67;;;14.05;;
21955;SDS011;11142;49.930;8.606;2022-09-12T00:59:09;24.30;;;13.93;;
21955;SDS011;11142;49.930;8.606;2022-09-12T01:01:41;26.40;;;14.10;;
21955;SDS011;11142;49.930;8.606;2022-09-12T01:04:13;28.73;;;15.15;;
21955;SDS011;11142;49.930;8.606;2022-09-12T01:06:43;29.40;;;15.35;;
21955;SDS011;11142;49.930;8.606;2022-09-12T01:09:16;30.17;;;15.50;;
21955;SDS011;11142;49.930;8.606;2022-09-12T01:11:50;34.75;;;15.98;;
21955;SDS011;11142;49.930;8.606;2022-09-12T01:14:20;24.77;;;15.77;;
21955;SDS011;11142;49.930;8.606;2022-09-12T01:16:49;27.13;;;15.75;;
21955;SDS011;11142;49.930;8.606;2022-09-12T01:19:34;29.02;;;14.50;;
21955;SDS011;11142;49.930;8.606;2022-09-12T01:22:21;24.98;;;13.90;;
21955;SDS011;11142;49.930;8.606;2022-09-12T01:25:06;27.88;;;14.77;;
21955;SDS011;11142;49.930;8.606;2022-09-12T01:27:48;27.17;;;14.75;;
21955;SDS011;11142;49.930;8.606;2022-09-12T01:33:28;32.77;;;15.90;;
21955;SDS011;11142;49.930;8.606;2022-09-12T01:36:06;28.05;;;14.20;;
21955;SDS011;11142;49.930;8.606;2022-09-12T01:38:51;24.90;;;14.52;;
21955;SDS011;11142;49.930;8.606;2022-09-12T01:41:25;28.95;;;15.35;;
21955;SDS011;11142;49.930;8.606;2022-09-12T01:43:59;30.38;;;16.17;;
21955;SDS011;11142;49.930;8.606;2022-09-12T01:46:34;32.08;;;16.63;;
21955;SDS011;11142;49.930;8.606;2022-09-12T01:49:11;30.38;;;15.50;;
21955;SDS011;11142;49.930;8.606;2022-09-12T01:51:45;32.92;;;16.17;;
21955;SDS011;11142;49.930;8.606;2022-09-12T01:54:21;36.35;;;16.55;;
21955;SDS011;11142;49.930;8.606;2022-09-12T01:59:24;31.95;;;16.23;;
21955;SDS011;11142;49.930;8.606;2022-09-12T02:01:59;29.67;;;15.95;;
21955;SDS011;11142;49.930;8.606;2022-09-12T02:04:33;35.13;;;16.83;;
21955;SDS011;11142;49.930;8.606;2022-09-12T02:07:05;37.55;;;17.60;;
21955;SDS011;11142;49.930;8.606;2022-09-12T02:09:40;36.30;;;17.63;;
21955;SDS011;11142;49.930;8.606;2022-09-12T02:12:14;36.22;;;18.23;;
21955;SDS011;11142;49.930;8.606;2022-09-12T02:14:48;34.75;;;17.55;;
21955;SDS011;11142;49.930;8.606;2022-09-12T02:17:21;38.90;;;17.20;;
21955;SDS011;11142;49.930;8.606;2022-09-12T02:19:53;33.33;;;16.08;;
21955;SDS011;11142;49.930;8.606;2022-09-12T02:22:25;33.53;;;16.27;;
21955;SDS011;11142;49.930;8.606;2022-09-12T02:24:56;32.53;;;15.75;;
21955;SDS011;11142;49.930;8.606;2022-09-12T02:27:27;35.88;;;16.83;;
21955;SDS011;11142;49.930;8.606;2022-09-12T02:30:00;35.83;;;17.05;;
21955;SDS011;11142;49.930;8.606;2022-09-12T02:32:31;33.35;;;15.68;;
21955;SDS011;11142;49.930;8.606;2022-09-12T02:35:04;33.65;;;16.30;;
21955;SDS011;11142;49.930;8.606;2022-09-12T02:37:40;31.33;;;16.05;;
21955;SDS011;11142;49.930;8.606;2022-09-12T02:40:18;31.87;;;15.97;;
21955;SDS011;11142;49.930;8.606;2022-09-12T02:42:46;32.38;;;16.73;;
21955;SDS011;11142;49.930;8.606;2022-09-12T02:45:14;41.85;;;16.95;;
21955;SDS011;11142;49.930;8.606;2022-09-12T02:47:45;33.80;;;16.25;;
21955;SDS011;11142;49.930;8.606;2022-09-12T02:50:16;36.10;;;17.30;;
21955;SDS011;11142;49.930;8.606;2022-09-12T02:52:44;33.95;;;17.25;;
21955;SDS011;11142;49.930;8.606;2022-09-12T02:55:13;36.25;;;16.92;;
21955;SDS011;11142;49.930;8.606;2022-09-12T02:57:41;35.53;;;16.98;;
21955;SDS011;11142;49.930;8.606;2022-09-12T03:00:10;37.08;;;17.23;;
21955;SDS011;11142;49.930;8.606;2022-09-12T03:02:48;36.78;;;17.52;;
21955;SDS011;11142;49.930;8.606;2022-09-12T03:05:32;34.38;;;17.92;;
21955;SDS011;11142;49.930;8.606;2022-09-12T03:08:16;39.60;;;17.90;;
21955;SDS011;11142;49.930;8.606;2022-09-12T03:11:29;36.00;;;18.17;;
21955;SDS011;11142;49.930;8.606;2022-09-12T03:14:12;40.75;;;22.13;;
21955;SDS011;11142;49.930;8.606;2022-09-12T03:16:52;38.97;;;19.08;;
21955;SDS011;11142;49.930;8.606;2022-09-12T03:19:32;39.35;;;18.45;;
21955;SDS011;11142;49.930;8.606;2022-09-12T03:22:09;32.50;;;17.95;;
21955;SDS011;11142;49.930;8.606;2022-09-12T03:24:45;33.92;;;18.00;;
21955;SDS011;11142;49.930;8.606;2022-09-12T03:27:19;42.75;;;19.45;;
21955;SDS011;11142;49.930;8.606;2022-09-12T03:29:52;35.78;;;17.13;;
21955;SDS011;11142;49.930;8.606;2022-09-12T03:32:38;35.85;;;18.27;;
21955;SDS011;11142;49.930;8.606;2022-09-12T03:35:08;40.83;;;18.85;;
21955;SDS011;11142;49.930;8.606;2022-09-12T03:37:36;39.20;;;18.02;;
21955;SDS011;11142;49.930;8.606;2022-09-12T03:40:05;39.22;;;20.75;;
21955;SDS011;11142;49.930;8.606;2022-09-12T03:42:34;39.22;;;19.20;;
21955;SDS011;11142;49.930;8.606;2022-09-12T03:45:03;41.10;;;19.10;;
21955;SDS011;11142;49.930;8.606;2022-09-12T03:47:31;44.72;;;20.35;;
21955;SDS011;11142;49.930;8.606;2022-09-12T03:49:59;46.80;;;20.25;;
21955;SDS011;11142;49.930;8.606;2022-09-12T03:52:29;49.25;;;21.98;;
21955;SDS011;11142;49.930;8.606;2022-09-12T03:54:57;42.33;;;20.00;;
21955;SDS011;11142;49.930;8.606;2022-09-12T03:57:25;46.13;;;20.35;;
21955;SDS011;11142;49.930;8.606;2022-09-12T03:59:53;40.60;;;20.45;;
21955;SDS011;11142;49.930;8.606;2022-09-12T04:02:22;41.25;;;20.02;;
21955;SDS011;11142;49.930;8.606;2022-09-12T04:04:50;43.53;;;19.52;;
21955;SDS011;11142;49.930;8.606;2022-09-12T04:07:18;43.55;;;19.33;;
21955;SDS011;11142;49.930;8.606;2022-09-12T04:09:48;41.00;;;19.50;;
21955;SDS011;11142;49.930;8.606;2022-09-12T04:12:16;39.95;;;19.08;;
21955;SDS011;11142;49.930;8.606;2022-09-12T04:14:44;38.90;;;20.25;;
21955;SDS011;11142;49.930;8.606;2022-09-12T04:17:14;36.15;;;19.13;;
21955;SDS011;11142;49.930;8.606;2022-09-12T04:19:45;37.42;;;17.92;;
21955;SDS011;11142;49.930;8.606;2022-09-12T04:22:12;35.50;;;18.88;;
21955;SDS011;11142;49.930;8.606;2022-09-12T04:24:40;37.45;;;18.02;;
21955;SDS011;11142;49.930;8.606;2022-09-12T04:27:09;40.60;;;19.08;;
21955;SDS011;11142;49.930;8.606;2022-09-12T04:29:37;39.60;;;19.27;;
21955;SDS011;11142;49.930;8.606;2022-09-12T04:32:05;40.42;;;18.40;;
21955;SDS011;11142;49.930;8.606;2022-09-12T04:34:33;37.47;;;19.13;;
21955;SDS011;11142;49.930;8.606;2022-09-12T04:37:01;36.95;;;18.23;;
21955;SDS011;11142;49.930;8.606;2022-09-12T04:39:30;39.70;;;19.25;;
21955;SDS011;11142;49.930;8.606;2022-09-12T04:41:58;45.78;;;18.63;;
21955;SDS011;11142;49.930;8.606;2022-09-12T04:44:27;40.85;;;19.30;;
21955;SDS011;11142;49.930;8.606;2022-09-12T04:46:55;39.28;;;18.77;;
21955;SDS011;11142;49.930;8.606;2022-09-12T04:49:23;40.03;;;18.33;;
21955;SDS011;11142;49.930;8.606;2022-09-12T04:51:52;46.90;;;20.77;;
21955;SDS011;11142;49.930;8.606;2022-09-12T04:54:21;44.85;;;19.92;;
21955;SDS011;11142;49.930;8.606;2022-09-12T04:56:49;45.28;;;20.58;;
21955;SDS011;11142;49.930;8.606;2022-09-12T04:59:18;40.53;;;19.60;;
21955;SDS011;11142;49.930;8.606;2022-09-12T05:01:49;50.63;;;20.23;;
21955;SDS011;11142;49.930;8.606;2022-09-12T05:04:17;42.63;;;20.10;;
21955;SDS011;11142;49.930;8.606;2022-09-12T05:06:48;43.75;;;20.05;;
21955;SDS011;11142;49.930;8.606;2022-09-12T05:09:16;44.25;;;21.30;;
21955;SDS011;11142;49.930;8.606;2022-09-12T05:11:44;43.67;;;20.33;;
21955;SDS011;11142;49.930;8.606;2022-09-12T05:14:30;44.65;;;21.20;;
21955;SDS011;11142;49.930;8.606;2022-09-12T05:17:01;41.28;;;19.35;;
21955;SDS011;11142;49.930;8.606;2022-09-12T05:19:31;42.60;;;20.85;;
21955;SDS011;11142;49.930;8.606;2022-09-12T05:22:00;39.60;;;20.52;;
21955;SDS011;11142;49.930;8.606;2022-09-12T05:24:30;45.63;;;20.75;;
21955;SDS011;11142;49.930;8.606;2022-09-12T05:26:58;43.67;;;21.63;;
21955;SDS011;11142;49.930;8.606;2022-09-12T05:29:28;45.25;;;20.38;;
21955;SDS011;11142;49.930;8.606;2022-09-12T05:31:57;38.20;;;19.20;;
21955;SDS011;11142;49.930;8.606;2022-09-12T05:34:29;37.10;;;19.33;;
21955;SDS011;11142;49.930;8.606;2022-09-12T05:36:57;36.45;;;18.75;;
21955;SDS011;11142;49.930;8.606;2022-09-12T05:39:25;34.15;;;18.17;;
21955;SDS011;11142;49.930;8.606;2022-09-12T05:41:54;34.65;;;17.42;;
21955;SDS011;11142;49.930;8.606;2022-09-12T05:44:25;33.33;;;16.02;;
21955;SDS011;11142;49.930;8.606;2022-09-12T05:46:53;26.73;;;15.23;;
21955;SDS011;11142;49.930;8.606;2022-09-12T05:49:22;27.15;;;14.75;;
21955;SDS011;11142;49.930;8.606;2022-09-12T05:51:51;27.35;;;14.60;;
21955;SDS011;11142;49.930;8.606;2022-09-12T05:54:19;26.23;;;14.68;;
21955;SDS011;11142;49.930;8.606;2022-09-12T05:56:48;22.38;;;13.52;;
21955;SDS011;11142;49.930;8.606;2022-09-12T05:59:17;19.80;;;13.05;;
21955;SDS011;11142;49.930;8.606;2022-09-12T06:01:47;19.42;;;13.00;;
21955;SDS011;11142;49.930;8.606;2022-09-12T06:04:16;21.08;;;11.93;;
21955;SDS011;11142;49.930;8.606;2022-09-12T06:06:44;21.95;;;11.90;;
21955;SDS011;11142;49.930;8.606;2022-09-12T06:09:16;18.83;;;12.55;;
21955;SDS011;11142;49.930;8.606;2022-09-12T06:11:44;21.67;;;13.40;;
21955;SDS011;11142;49.930;8.606;2022-09-12T06:14:14;18.60;;;11.57;;
21955;SDS011;11142;49.930;8.606;2022-09-12T06:16:43;18.27;;;11.30;;
21955;SDS011;11142;49.930;8.606;2022-09-12T06:19:13;16.83;;;11.70;;
21955;SDS011;11142;49.930;8.606;2022-09-12T06:21:42;20.27;;;11.00;;
21955;SDS011;11142;49.930;8.606;2022-09-12T06:24:11;17.83;;;11.88;;
21955;SDS011;11142;49.930;8.606;2022-09-12T06:26:41;18.27;;;11.15;;
21955;SDS011;11142;49.930;8.606;2022-09-12T06:29:09;19.65;;;10.93;;
21955;SDS011;11142;49.930;8.606;2022-09-12T06:31:39;15.25;;;9.93;;
21955;SDS011;11142;49.930;8.606;2022-09-12T06:34:10;14.10;;;9.27;;
21955;SDS011;11142;49.930;8.606;2022-09-12T06:36:41;14.43;;;10.10;;
21955;SDS011;11142;49.930;8.606;2022-09-12T06:39:10;16.02;;;9.82;;
21955;SDS011;11142;49.930;8.606;2022-09-12T06:41:41;13.30;;;9.98;;
21955;SDS011;11142;49.930;8.606;2022-09-12T06:44:11;13.70;;;9.35;;
21955;SDS011;11142;49.930;8.606;2022-09-12T06:46:41;10.77;;;8.32;;
21955;SDS011;11142;49.930;8.606;2022-09-12T06:49:10;11.98;;;8.38;;
21955;SDS011;11142;49.930;8.606;2022-09-12T06:51:39;15.70;;;8.60;;
21955;SDS011;11142;49.930;8.606;2022-09-12T06:54:10;10.57;;;8.00;;
21955;SDS011;11142;49.930;8.606;2022-09-12T06:56:40;14.10;;;8.60;;
21955;SDS011;11142;49.930;8.606;2022-09-12T06:59:09;11.10;;;7.97;;
21955;SDS011;11142;49.930;8.606;2022-09-12T07:01:39;11.48;;;8.38;;
21955;SDS011;11142;49.930;8.606;2022-09-12T07:04:08;15.85;;;8.85;;
21955;SDS011;11142;49.930;8.606;2022-09-12T07:06:37;14.15;;;9.23;;
21955;SDS011;11142;49.930;8.606;2022-09-12T07:09:09;11.88;;;8.25;;
21955;SDS011;11142;49.930;8.606;2022-09-12T07:11:39;10.32;;;7.95;;
21955;SDS011;11142;49.930;8.606;2022-09-12T07:14:10;10.80;;;7.90;;
21955;SDS011;11142;49.930;8.606;2022-09-12T07:16:39;14.55;;;8.20;;
21955;SDS011;11142;49.930;8.606;2022-09-12T07:19:08;11.55;;;8.25;;
21955;SDS011;11142;49.930;8.606;2022-09-12T07:21:37;12.05;;;7.55;;
21955;SDS011;11142;49.930;8.606;2022-09-12T07:24:07;10.07;;;7.43;;
21955;SDS011;11142;49.930;8.606;2022-09-12T07:26:39;13.48;;;8.52;;
21955;SDS011;11142;49.930;8.606;2022-09-12T07:29:11;13.27;;;8.82;;
21955;SDS011;11142;49.930;8.606;2022-09-12T07:34:29;13.00;;;8.30;;
21955;SDS011;11142;49.930;8.606;2022-09-12T07:36:57;11.23;;;8.02;;
21955;SDS011;11142;49.930;8.606;2022-09-12T07:39:25;14.30;;;9.00;;
21955;SDS011;11142;49.930;8.606;2022-09-12T07:41:54;14.73;;;8.35;;
21955;SDS011;11142;49.930;8.606;2022-09-12T07:44:25;10.70;;;8.02;;
21955;SDS011;11142;49.930;8.606;2022-09-12T07:46:53;11.55;;;8.32;;
21955;SDS011;11142;49.930;8.606;2022-09-12T07:49:21;12.02;;;8.50;;
21955;SDS011;11142;49.930;8.606;2022-09-12T07:51:49;11.35;;;7.50;;
21955;SDS011;11142;49.930;8.606;2022-09-12T07:54:19;10.38;;;7.68;;
21955;SDS011;11142;49.930;8.606;2022-09-12T07:56:47;11.73;;;8.15;;
21955;SDS011;11142;49.930;8.606;2022-09-12T07:59:15;11.48;;;8.40;;
21955;SDS011;11142;49.930;8.606;2022-09-12T08:02:05;11.43;;;8.48;;
21955;SDS011;11142;49.930;8.606;2022-09-12T08:04:33;11.32;;;8.20;;
21955;SDS011;11142;49.930;8.606;2022-09-12T08:07:01;12.23;;;8.02;;
21955;SDS011;11142;49.930;8.606;2022-09-12T08:09:31;11.70;;;8.15;;
21955;SDS011;11142;49.930;8.606;2022-09-12T08:12:00;11.70;;;8.50;;
21955;SDS011;11142;49.930;8.606;2022-09-12T08:14:28;12.07;;;8.95;;
21955;SDS011;11142;49.930;8.606;2022-09-12T08:16:56;12.45;;;8.38;;
21955;SDS011;11142;49.930;8.606;2022-09-12T08:19:26;12.07;;;8.90;;
21955;SDS011;11142;49.930;8.606;2022-09-12T08:21:54;10.85;;;8.48;;
21955;SDS011;11142;49.930;8.606;2022-09-12T08:24:22;12.13;;;7.72;;
21955;SDS011;11142;49.930;8.606;2022-09-12T08:26:50;12.27;;;7.82;;
21955;SDS011;11142;49.930;8.606;2022-09-12T08:29:18;14.10;;;8.25;;
21955;SDS011;11142;49.930;8.606;2022-09-12T08:31:46;10.38;;;8.02;;
21955;SDS011;11142;49.930;8.606;2022-09-12T08:34:19;12.10;;;9.13;;
21955;SDS011;11142;49.930;8.606;2022-09-12T08:36:49;16.02;;;8.30;;
21955;SDS011;11142;49.930;8.606;2022-09-12T08:39:17;12.43;;;8.77;;
21955;SDS011;11142;49.930;8.606;2022-09-12T08:41:45;12.57;;;8.18;;
21955;SDS011;11142;49.930;8.606;2022-09-12T08:44:22;11.10;;;8.73;;
21955;SDS011;11142;49.930;8.606;2022-09-12T08:47:13;13.43;;;8.80;;
21955;SDS011;11142;49.930;8.606;2022-09-12T08:49:49;11.32;;;8.50;;
21955;SDS011;11142;49.930;8.606;2022-09-12T08:52:26;13.68;;;8.50;;
21955;SDS011;11142;49.930;8.606;2022-09-12T08:54:57;10.55;;;7.57;;
21955;SDS011;11142;49.930;8.606;2022-09-12T08:57:26;10.77;;;7.53;;
21955;SDS011;11142;49.930;8.606;2022-09-12T08:59:54;10.50;;;7.97;;
21955;SDS011;11142;49.930;8.606;2022-09-12T09:02:31;12.13;;;8.32;;
21955;SDS011;11142;49.930;8.606;2022-09-12T09:05:16;8.80;;;7.20;;
21955;SDS011;11142;49.930;8.606;2022-09-12T09:07:56;10.13;;;7.38;;
21955;SDS011;11142;49.930;8.606;2022-09-12T09:10:38;8.07;;;6.88;;
21955;SDS011;11142;49.930;8.606;2022-09-12T09:13:17;8.82;;;6.57;;
21955;SDS011;11142;49.930;8.606;2022-09-12T09:16:15;8.85;;;7.00;;
21955;SDS011;11142;49.930;8.606;2022-09-12T09:18:50;7.93;;;6.63;;
21955;SDS011;11142;49.930;8.606;2022-09-12T09:21:22;8.15;;;6.32;;
21955;SDS011;11142;49.930;8.606;2022-09-12T09:24:00;7.82;;;6.68;;
21955;SDS011;11142;49.930;8.606;2022-09-12T09:26:36;7.55;;;6.22;;
21955;SDS011;11142;49.930;8.606;2022-09-12T09:29:10;8.63;;;6.47;;
21955;SDS011;11142;49.930;8.606;2022-09-12T09:31:45;8.60;;;6.68;;
21955;SDS011;11142;49.930;8.606;2022-09-12T09:34:17;7.05;;;6.20;;
21955;SDS011;11142;49.930;8.606;2022-09-12T09:36:48;7.75;;;5.97;;
21955;SDS011;11142;49.930;8.606;2022-09-12T09:39:29;7.93;;;6.35;;
21955;SDS011;11142;49.930;8.606;2022-09-12T09:42:10;7.22;;;5.80;;
21955;SDS011;11142;49.930;8.606;2022-09-12T09:44:45;9.30;;;6.30;;
21955;SDS011;11142;49.930;8.606;2022-09-12T09:47:15;7.45;;;6.00;;
21955;SDS011;11142;49.930;8.606;2022-09-12T09:49:45;13.38;;;5.80;;
21955;SDS011;11142;49.930;8.606;2022-09-12T09:52:14;6.65;;;5.60;;
21955;SDS011;11142;49.930;8.606;2022-09-12T09:54:50;8.20;;;6.40;;
21955;SDS011;11142;49.930;8.606;2022-09-12T09:57:42;9.43;;;6.07;;
21955;SDS011;11142;49.930;8.606;2022-09-12T10:00:28;7.22;;;6.00;;
21955;SDS011;11142;49.930;8.606;2022-09-12T10:05:57;7.85;;;5.13;;
21955;SDS011;11142;49.930;8.606;2022-09-12T10:08:28;7.65;;;5.60;;
21955;SDS011;11142;49.930;8.606;2022-09-12T10:11:00;8.80;;;4.72;;
21955;SDS011;11142;49.930;8.606;2022-09-12T10:13:32;6.00;;;4.80;;
21955;SDS011;11142;49.930;8.606;2022-09-12T10:16:03;7.53;;;4.57;;
21955;SDS011;11142;49.930;8.606;2022-09-12T10:18:38;6.55;;;5.15;;
21955;SDS011;11142;49.930;8.606;2022-09-12T10:21:11;5.97;;;4.40;;
21955;SDS011;11142;49.930;8.606;2022-09-12T10:23:42;6.18;;;5.05;;
21955;SDS011;11142;49.930;8.606;2022-09-12T10:26:14;7.30;;;5.13;;
21955;SDS011;11142;49.930;8.606;2022-09-12T10:28:48;6.95;;;5.07;;
21955;SDS011;11142;49.930;8.606;2022-09-12T10:31:23;4.75;;;4.25;;
21955;SDS011;11142;49.930;8.606;2022-09-12T10:33:55;5.43;;;4.03;;
21955;SDS011;11142;49.930;8.606;2022-09-12T10:36:33;7.97;;;4.32;;
21955;SDS011;11142;49.930;8.606;2022-09-12T10:39:03;5.97;;;4.43;;
21955;SDS011;11142;49.930;8.606;2022-09-12T10:41:37;5.60;;;4.57;;
21955;SDS011;11142;49.930;8.606;2022-09-12T10:44:11;6.88;;;4.38;;
21955;SDS011;11142;49.930;8.606;2022-09-12T10:46:42;6.25;;;4.43;;
21955;SDS011;11142;49.930;8.606;2022-09-12T10:49:11;8.75;;;4.43;;
21955;SDS011;11142;49.930;8.606;2022-09-12T10:51:48;4.90;;;4.40;;
21955;SDS011;11142;49.930;8.606;2022-09-12T10:54:18;7.95;;;4.82;;
21955;SDS011;11142;49.930;8.606;2022-09-12T11:00:01;5.22;;;4.30;;
21955;SDS011;11142;49.930;8.606;2022-09-12T11:02:40;5.60;;;4.05;;
21955;SDS011;11142;49.930;8.606;2022-09-12T11:05:20;6.30;;;4.40;;
21955;SDS011;11142;49.930;8.606;2022-09-12T11:07:58;5.35;;;4.13;;
21955;SDS011;11142;49.930;8.606;2022-09-12T11:10:36;5.72;;;4.53;;
21955;SDS011;11142;49.930;8.606;2022-09-12T11:13:18;6.03;;;4.75;;
21955;SDS011;11142;49.930;8.606;2022-09-12T11:15:59;8.13;;;5.28;;
21955;SDS011;11142;49.930;8.606;2022-09-12T11:18:41;6.30;;;4.50;;
21955;SDS011;11142;49.930;8.606;2022-09-12T11:21:31;5.15;;;4.15;;
21955;SDS011;11142;49.930;8.606;2022-09-12T11:27:30;7.03;;;4.95;;
21955;SDS011;11142;49.930;8.606;2022-09-12T11:30:09;6.90;;;4.55;;
21955;SDS011;11142;49.930;8.606;2022-09-12T11:32:42;4.85;;;4.30;;
21955;SDS011;11142;49.930;8.606;2022-09-12T11:35:33;4.82;;;3.97;;
21955;SDS011;11142;49.930;8.606;2022-09-12T11:38:19;4.88;;;4.38;;
21955;SDS011;11142;49.930;8.606;2022-09-12T11:41:07;5.97;;;4.77;;
21955;SDS011;11142;49.930;8.606;2022-09-12T11:43:42;6.82;;;5.03;;
21955;SDS011;11142;49.930;8.606;2022-09-12T11:46:19;6.97;;;4.82;;
21955;SDS011;11142;49.930;8.606;2022-09-12T11:48:53;5.90;;;4.90;;
21955;SDS011;11142;49.930;8.606;2022-09-12T11:51:25;7.45;;;4.60;;
21955;SDS011;11142;49.930;8.606;2022-09-12T11:54:02;6.75;;;4.78;;
21955;SDS011;11142;49.930;8.606;2022-09-12T11:56:39;5.90;;;4.80;;
21955;SDS011;11142;49.930;8.606;2022-09-12T11:59:13;5.68;;;4.70;;
21955;SDS011;11142;49.930;8.606;2022-09-12T12:01:49;7.95;;;4.85;;
21955;SDS011;11142;49.930;8.606;2022-09-12T12:04:23;6.68;;;5.22;;
21955;SDS011;11142;49.930;8.606;2022-09-12T12:06:58;6.43;;;4.82;;
21955;SDS011;11142;49.930;8.606;2022-09-12T12:09:32;5.50;;;4.63;;
21955;SDS011;11142;49.930;8.606;2022-09-12T12:12:02;6.15;;;5.07;;
21955;SDS011;11142;49.930;8.606;2022-09-12T12:14:36;7.95;;;4.82;;
21955;SDS011;11142;49.930;8.606;2022-09-12T12:17:14;6.65;;;5.22;;
21955;SDS011;11142;49.930;8.606;2022-09-12T12:19:44;6.55;;;5.43;;
21955;SDS011;11142;49.930;8.606;2022-09-12T12:22:14;6.35;;;5.10;;
21955;SDS011;11142;49.930;8.606;2022-09-12T12:25:00;6.50;;;4.30;;
21955;SDS011;11142;49.930;8.606;2022-09-12T12:27:50;9.23;;;5.60;;
21955;SDS011;11142;49.930;8.606;2022-09-12T12:33:52;5.43;;;4.35;;
21955;SDS011;11142;49.930;8.606;2022-09-12T12:36:39;4.93;;;4.10;;
21955;SDS011;11142;49.930;8.606;2022-09-12T12:45:47;6.60;;;5.80;;
21955;SDS011;11142;49.930;8.606;2022-09-12T12:48:50;8.18;;;4.85;;
21955;SDS011;11142;49.930;8.606;2022-09-12T12:51:25;6.05;;;5.07;;
21955;SDS011;11142;49.930;8.606;2022-09-12T12:54:03;6.93;;;5.18;;
21955;SDS011;11142;49.930;8.606;2022-09-12T12:56:59;8.02;;;4.50;;
21955;SDS011;11142;49.930;8.606;2022-09-12T12:59:29;9.10;;;4.85;;
21955;SDS011;11142;49.930;8.606;2022-09-12T13:01:58;8.13;;;5.40;;
21955;SDS011;11142;49.930;8.606;2022-09-12T13:04:28;7.05;;;4.40;;
21955;SDS011;11142;49.930;8.606;2022-09-12T13:07:00;5.13;;;4.40;;
21955;SDS011;11142;49.930;8.606;2022-09-12T13:09:36;6.47;;;4.88;;
21955;SDS011;11142;49.930;8.606;2022-09-12T13:12:11;4.75;;;4.13;;
21955;SDS011;11142;49.930;8.606;2022-09-12T13:14:47;4.47;;;4.07;;
21955;SDS011;11142;49.930;8.606;2022-09-12T13:17:21;5.85;;;4.32;;
21955;SDS011;11142;49.930;8.606;2022-09-12T13:20:00;5.47;;;4.35;;
21955;SDS011;11142;49.930;8.606;2022-09-12T13:22:52;7.47;;;4.55;;
21955;SDS011;11142;49.930;8.606;2022-09-12T13:25:21;5.00;;;4.50;;
21955;SDS011;11142;49.930;8.606;2022-09-12T13:27:58;6.00;;;4.13;;
21955;SDS011;11142;49.930;8.606;2022-09-12T13:30:33;5.05;;;4.05;;
21955;SDS011;11142;49.930;8.606;2022-09-12T13:33:15;4.53;;;3.97;;
21955;SDS011;11142;49.930;8.606;2022-09-12T13:38:58;5.72;;;3.83;;
21955;SDS011;11142;49.930;8.606;2022-09-12T13:41:47;4.95;;;3.80;;
21955;SDS011;11142;49.930;8.606;2022-09-12T13:44:27;5.10;;;3.85;;
21955;SDS011;11142;49.930;8.606;2022-09-12T13:46:57;4.90;;;3.97;;
21955;SDS011;11142;49.930;8.606;2022-09-12T13:49:29;5.38;;;3.67;;
21955;SDS011;11142;49.930;8.606;2022-09-12T13:52:02;6.35;;;4.00;;
21955;SDS011;11142;49.930;8.606;2022-09-12T13:54:33;5.18;;;4.32;;
21955;SDS011;11142;49.930;8.606;2022-09-12T13:57:04;4.60;;;3.95;;
21955;SDS011;11142;49.930;8.606;2022-09-12T13:59:36;6.80;;;3.88;;
21955;SDS011;11142;49.930;8.606;2022-09-12T14:02:15;7.90;;;3.95;;
21955;SDS011;11142;49.930;8.606;2022-09-12T14:04:45;5.22;;;3.42;;
21955;SDS011;11142;49.930;8.606;2022-09-12T14:07:33;5.00;;;4.13;;
21955;SDS011;11142;49.930;8.606;2022-09-12T14:10:06;5.90;;;3.90;;
21955;SDS011;11142;49.930;8.606;2022-09-12T14:12:35;4.43;;;3.28;;
21955;SDS011;11142;49.930;8.606;2022-09-12T14:15:13;4.70;;;3.60;;
21955;SDS011;11142;49.930;8.606;2022-09-12T14:17:47;4.05;;;3.45;;
21955;SDS011;11142;49.930;8.606;2022-09-12T14:20:18;4.03;;;3.40;;
21955;SDS011;11142;49.930;8.606;2022-09-12T14:22:50;3.85;;;3.42;;
21955;SDS011;11142;49.930;8.606;2022-09-12T14:25:20;3.88;;;3.28;;
21955;SDS011;11142;49.930;8.606;2022-09-12T14:27:51;6.70;;;3.60;;
21955;SDS011;11142;49.930;8.606;2022-09-12T14:30:22;4.43;;;2.97;;
21955;SDS011;11142;49.930;8.606;2022-09-12T14:33:11;3.88;;;3.53;;
21955;SDS011;11142;49.930;8.606;2022-09-12T14:35:46;3.67;;;3.22;;
21955;SDS011;11142;49.930;8.606;2022-09-12T14:38:28;5.75;;;3.03;;
21955;SDS011;11142;49.930;8.606;2022-09-12T14:41:02;3.17;;;2.85;;
21955;SDS011;11142;49.930;8.606;2022-09-12T14:43:35;3.58;;;3.25;;
21955;SDS011;11142;49.930;8.606;2022-09-12T14:46:06;8.18;;;3.15;;
21955;SDS011;11142;49.930;8.606;2022-09-12T14:48:45;4.93;;;3.90;;
21955;SDS011;11142;49.930;8.606;2022-09-12T14:51:19;3.53;;;3.22;;
21955;SDS011;11142;49.930;8.606;2022-09-12T14:53:53;8.00;;;3.55;;
21955;SDS011;11142;49.930;8.606;2022-09-12T14:56:21;4.75;;;3.28;;
21955;SDS011;11142;49.930;8.606;2022-09-12T14:59:24;3.67;;;3.30;;
21955;SDS011;11142;49.930;8.606;2022-09-12T15:02:10;5.53;;;3.60;;
21955;SDS011;11142;49.930;8.606;2022-09-12T15:04:47;4.03;;;3.50;;
21955;SDS011;11142;49.930;8.606;2022-09-12T15:07:19;3.83;;;3.28;;
21955;SDS011;11142;49.930;8.606;2022-09-12T15:09:54;5.22;;;3.78;;
21955;SDS011;11142;49.930;8.606;2022-09-12T15:12:22;4.40;;;4.00;;
21955;SDS011;11142;49.930;8.606;2022-09-12T15:14:52;7.18;;;3.83;;
21955;SDS011;11142;49.930;8.606;2022-09-12T15:17:21;4.30;;;3.90;;
21955;SDS011;11142;49.930;8.606;2022-09-12T15:19:50;5.45;;;3.90;;
21955;SDS011;11142;49.930;8.606;2022-09-12T15:22:18;4.88;;;3.78;;
21955;SDS011;11142;49.930;8.606;2022-09-12T15:24:49;4.30;;;3.60;;
21955;SDS011;11142;49.930;8.606;2022-09-12T15:27:18;5.00;;;4.18;;
21955;SDS011;11142;49.930;8.606;2022-09-12T15:29:46;7.70;;;3.70;;
21955;SDS011;11142;49.930;8.606;2022-09-12T15:32:21;6.22;;;3.88;;
21955;SDS011;11142;49.930;8.606;2022-09-12T15:34:49;4.38;;;3.72;;
21955;SDS011;11142;49.930;8.606;2022-09-12T15:37:19;5.13;;;3.22;;
21955;SDS011;11142;49.930;8.606;2022-09-12T15:39:49;3.92;;;3.53;;